EB1DGC
43.12.60N 005.45.59W
IN73CF aprs.fi
zuletzt gehoert:
2023-02-06T18:39:03Z
zuerst gehoert:
2021-01-17T20:00:10Z

APRS IN73CE, 2 Stunde(n), EB1DGC [19:39:10, 0s].
EB1DGC 43.12.60N 005.45.59WIN73CF 0.555km 323°NW18:39:03ZMMDVM MMDVM HS Hat 433.4500/433.4500 CC1
EA1HWA 43.12.00N 005.47.40WIN73CE 2.843km 256°WSW18:20:09ZMMDVM MMDVM HS Hat 433.4500/433.4500 CC1
EA1IMW 43.14.36N 005.46.93WIN73CF 4.273km 330°NNW18:21:28ZGRUPO RADIO GALENA (GRG) 430.4500/430.4500 CC1(3EA1IMW-1)
EA1RCG 43.09.45N 005.49.78WIN73CD 8.050km 228°SW18:21:19ZGRUPO RADIO GALENA (GRG) 430.4500/430.4500 CC1(3EA1RCG-3)
ED1ZAD 43.07.90N 005.38.52WIN73ED 12.371km 132°SE18:28:17ZED1ZAD-3 APRS Digi/Igate(3ED1ZAD-3)
EA1HWX 43.19.29N 005.50.96WIN73BH 14.910km 329°NNW18:21:49ZDMO - UHF 439.7250/431.0000 CC11(3EA1HWX-2)
EA1L 43.20.38N 005.51.13WIN73BI 16.803km 332°NNW18:15:03ZWind 058°/003kn, Böen bis 007kn, Temp 6.11c, Regen 0.0mm, letzte 24h 0.0mm, seit 0h 0.0mm, Baro 1026.2h, Hum: 70%(3EA1L-13)
ea1l@ure.es V=13.0V(2EA1L)
33D00 43.21.63N 005.51.13WIN73BI 18.861km 336°NNW18:01:42Z33-D-00 Protección Civil REMER / Delegación del Gobierno en Asturias
EA1JBU 43.21.85N 005.51.13WIN73BI 19.239km 336°NNW18:32:04ZEA1JBU(3EA1JBU-1)
LEHU 43.22.63N 005.49.57WIN73CJ 19.865km 343°NNW18:30:04ZHelipuerto del HUCA: LEAS 061730Z 09012KT 050V140 9999 SCT031 09/03 Q1028 NOSIG=
EA1FLQ 43.22.00N 005.36.35WIN73EI 21.593km 34°NE18:19:56ZMMDVM DVMega 430.9750/430.9750 CC1
ED1ZAU 43.23.04N 005.52.75WIN73BJ 22.167km 333°NNW18:38:31ZRD625 438.5000/430.9000 CC1
EA1ABW 43.24.77N 005.47.77WIN73CJ 23.245km 352°N18:21:02ZMMDVM MMDVM HS Hat 439.8250/439.8250 CC1(3EA1ABW-2)
LEMR 43.25.83N 005.49.60WIN73CK 25.610km 347°NNW18:30:03ZAerodromo de la Morgal (123.500MHz): LEAS 061730Z 09012KT 050V140 9999 SCT031 09/03 Q1028 NOSIG=
EA1IPU 43.26.21N 005.46.62WIN73CK 25.739km 356°N18:21:27ZMMDVM MMDVM HS Hat 439.8000/439.8000 CC1(3EA1IPU-1)
LEGM 43.26.15N 005.49.84WIN73CK 26.276km 347°NNW18:30:03ZHelipuerto de La Morgal (123.500MHz): LEAS 061730Z 09012KT 050V140 9999 SCT031 09/03 Q1028 NOSIG=
ED1ZAS 43.27.52N 005.40.17WIN73DL 28.961km 14°NNE18:38:31ZRD985 438.2250/430.6250 CC1
ED1ZAE 43.27.99N 005.40.54WIN73DL 29.677km 13°NNE18:30:32ZWIDE3-3 ESAS3-3 IN73DL WWW.EA1URG.ORG(3ED1ZAE-3)
EA4ACU 43.29.56N 005.38.92WIN73EL 33.043km 15°NNE18:22:21ZMMDVM MMDVM HS Hat 432.7000/432.7000 CC1(3EA4ACU-1)
EB1GEM 43.30.00N 005.36.07WIN73EM 35.015km 21°NNE18:30:02ZWX3in1Plus2.0 U=13.3V,T=??.?C/??.?F(3EB1GEM-3)
ED1ZAY 43.29.47N 005.56.54WIN73AL 35.127km 335°NNW18:38:36ZRD625 438.3000/430.7000 CC1
EA1HJA 43.28.10N 005.30.45WIN73FL 35.413km 34°NE18:23:11Z IN73FL WX3IN1+ 2.0 - V=14.0V,TX TEMP=43.2C
IN73FL WX3IN1+ 2.0 - V=13.3V,TX TEMP=21.3C(2EA1HJA-2)
EA1FFA 43.31.53N 005.40.64WIN73DM 36.103km 10°N18:21:45ZMMDVM MMDVM HS Hat 438.8000/438.8000 CC1(3EA1FFA-1)
EA1DZR 43.31.49N 005.40.00WIN73DM 36.189km 11°N18:21:24ZMMDVM MMDVM HS Hat 432.2000/432.2000 CC2(3EA1DZR-2)
MMDVM DMO 434.3500/434.3500 CC1(2EA1DZR-4)
MMDVM DVMega 431.1000/431.1000 CC1(2EA1DZR-1)
EB1TK 43.32.22N 005.42.32WIN73DM 37.044km N18:35:15ZWind 082°/016kn, Böen bis 024kn, Temp 9.44c, Regen 0.0mm, letzte 24h 0.0mm, seit 0h 0.0mm, Baro 1031.5h, Hum: 70%(3EB1TK-13)
EA1FPN 43.32.38N 005.42.17WIN73DM 37.343km N18:20:42ZMMDVM MMDVM HS Hat 439.8750/439.8750 CC1
EB1EHT 43.32.47N 005.40.40WIN73DM 37.853km 10°N17:46:28ZMMDVM MMDVM HS Hat 433.5550/433.5550 CC2(3EB1EHT-1)
440 MMDVM Voice 433.55500MHz +0.0000MHz, APRS for DMRGateway(2EB1EHT-D)
EA1IEJ 43.32.33N 005.38.92WIN73EM 38.005km 13°NNE18:21:34ZMMDVM DMO 222.3400/222.3400 CC1(3EA1IEJ-11)
LEEL 43.32.98N 005.41.71WIN73DN 38.520km N18:30:03ZHelipuerto de El Musel: LEAS 061730Z 09012KT 050V140 9999 SCT031 09/03 Q1028 NOSIG=
EA1FHR 43.28.72N 005.26.41WIN73GL 39.623km 40°NE18:39:00ZMMDVM MMDVM HS Hat 439.1500/439.1500 CC1
EA1JAY 43.29.33N 005.26.78WIN73GL 40.204km 38°NE18:30:04Z434.525MHz Nodo TETRA DMO(3EA1JAY-4)
EA1JAY(2EA1JAY-2)
EA1JW 43.31.35N 005.28.83WIN73GM 41.637km 32°NNE18:21:19ZMMDVM MMDVM HS Hat 436.5000/436.5000 CC1(3EA1JW-3)
EA1DZL 43.33.56N 005.55.78WIN73AN 41.717km 340°NNW18:22:55ZMMDVM MMDVM HS Hat 438.8000/438.8000 CC1(3EA1DZL-1)
EA1AYL 43.29.44N 006.09.04WIN63WL 44.957km 315°NW18:39:09ZMMDVM MMDVM HS Hat 433.0750/433.0750 CC1

aprs.pl 5.0.011w DL3EL © 2006-2021 [10436857]